This is the latest recevied weather packets stored in our database for station/object BMCB-1. If no packets are shown the sender has not sent any weather packets the latest 10 day(s).
| Time | Temp. | Humidity | Pressure | Rain* | Wind** | Luminosity | Snow |
|---|---|---|---|---|---|---|---|
| 1778095822 | 9.44° C | 91% | 1015.7 hPa | 0 mm | - | 0 W/m² | - |
| 1778090422 | 10.56° C | 90% | 1014.8 hPa | 0 mm | - | 18 W/m² | - |
| 1778089822 | 10.56° C | 90% | 1014.6 hPa | 0 mm | - | 38 W/m² | - |
| 1778087422 | 10.56° C | 87% | 1014.3 hPa | 0 mm | - | 38 W/m² | - |
| 1778086817 | 10.56° C | 87% | 1014.2 hPa | 0 mm | - | 40 W/m² | - |
| 1778083221 | 11.11° C | 87% | 1014.1 hPa | 0 mm | - | 184 W/m² | - |
| 1778080845 | 10.56° C | 85% | 1014 hPa | 0 mm | - | 162 W/m² | - |
| 1778075423 | 10° C | 89% | 1014.1 hPa | 0 mm | - | 148 W/m² | - |
| 1778073623 | 10.56° C | 87% | 1014.1 hPa | 0 mm | - | 180 W/m² | - |
| 1778071222 | 10° C | 89% | 1013.8 hPa | 0 mm | - | 240 W/m² | - |
| 1778067044 | 10° C | 94% | 1013.4 hPa | 0.25 mm | - | 528 W/m² | - |
| 1778062823 | 8.33° C | 97% | 1013.7 hPa | 0.51 mm | - | 110 W/m² | - |
| 1778061619 | 8.33° C | 97% | 1013.6 hPa | 0.51 mm | - | 116 W/m² | - |
| 1778061045 | 7.78° C | 98% | 1013.5 hPa | 0.51 mm | - | 146 W/m² | - |
| 1778060418 | 7.78° C | 98% | 1013.4 hPa | 0.51 mm | - | 134 W/m² | - |
| 1778053222 | 7.22° C | 98% | 1012.7 hPa | 0.51 mm | - | 74 W/m² | - |
| 1778044841 | 6.67° C | 98% | 1012.2 hPa | 1.78 mm | - | 12 W/m² | - |
| 1778043622 | 6.67° C | 98% | 1012.2 hPa | 1.52 mm | - | 6 W/m² | - |
| 1778039417 | 7.22° C | 98% | 1012 hPa | 0.51 mm | - | 0 W/m² | - |
| 1778036422 | 7.78° C | 97% | 1012.1 hPa | 0.76 mm | - | 0 W/m² | - |
| 1778030421 | 8.33° C | 97% | 1012.3 hPa | 1.52 mm | - | 0 W/m² | - |
| 1778028021 | 8.33° C | 97% | 1012.4 hPa | 0.76 mm | - | 0 W/m² | - |
| 1778025023 | 8.33° C | 97% | 1012.7 hPa | 0.76 mm | - | 0 W/m² | - |
| 1778023834 | 8.89° C | 98% | 1012.7 hPa | 1.02 mm | - | 0 W/m² | - |
| 1778023222 | 8.89° C | 98% | 1012.8 hPa | 0.76 mm | - | 0 W/m² | - |
* Rain latest hour (hover to see other rain measurements)
** Current wind speed in m/s (hover to see current wind gust speed)